sensor_id;sensor_type;location;lat;lon;timestamp;P1;durP1;ratioP1;P2;durP2;ratioP2
18136;SDS011;9194;42.632;23.298;2022-09-28T00:03:00;3.40;;;3.10;;
18136;SDS011;9194;42.632;23.298;2022-09-28T00:08:02;8.13;;;2.70;;
18136;SDS011;9194;42.632;23.298;2022-09-28T00:13:03;6.80;;;2.93;;
18136;SDS011;9194;42.632;23.298;2022-09-28T00:18:05;12.10;;;3.03;;
18136;SDS011;9194;42.632;23.298;2022-09-28T00:23:06;6.40;;;3.20;;
18136;SDS011;9194;42.632;23.298;2022-09-28T00:28:07;8.33;;;3.37;;
18136;SDS011;9194;42.632;23.298;2022-09-28T00:33:09;9.00;;;3.00;;
18136;SDS011;9194;42.632;23.298;2022-09-28T00:38:10;5.37;;;3.23;;
18136;SDS011;9194;42.632;23.298;2022-09-28T00:43:18;7.70;;;2.80;;
18136;SDS011;9194;42.632;23.298;2022-09-28T00:48:21;6.47;;;2.87;;
18136;SDS011;9194;42.632;23.298;2022-09-28T00:53:24;3.03;;;2.83;;
18136;SDS011;9194;42.632;23.298;2022-09-28T00:58:30;12.13;;;3.47;;
18136;SDS011;9194;42.632;23.298;2022-09-28T01:03:33;9.50;;;3.60;;
18136;SDS011;9194;42.632;23.298;2022-09-28T01:08:34;13.43;;;3.40;;
18136;SDS011;9194;42.632;23.298;2022-09-28T01:13:38;4.07;;;2.20;;
18136;SDS011;9194;42.632;23.298;2022-09-28T01:34:40;12.00;;;3.30;;
18136;SDS011;9194;42.632;23.298;2022-09-28T01:39:47;3.13;;;2.83;;
18136;SDS011;9194;42.632;23.298;2022-09-28T01:44:53;3.53;;;3.20;;
18136;SDS011;9194;42.632;23.298;2022-09-28T01:50:05;7.90;;;3.53;;
18136;SDS011;9194;42.632;23.298;2022-09-28T01:55:30;4.03;;;2.87;;
18136;SDS011;9194;42.632;23.298;2022-09-28T02:00:37;7.93;;;3.50;;
18136;SDS011;9194;42.632;23.298;2022-09-28T02:05:52;4.50;;;3.23;;
18136;SDS011;9194;42.632;23.298;2022-09-28T02:11:02;9.63;;;3.30;;
18136;SDS011;9194;42.632;23.298;2022-09-28T02:16:29;8.93;;;3.50;;
18136;SDS011;9194;42.632;23.298;2022-09-28T02:21:42;6.47;;;3.27;;
18136;SDS011;9194;42.632;23.298;2022-09-28T02:26:51;6.60;;;3.37;;
18136;SDS011;9194;42.632;23.298;2022-09-28T02:31:56;5.60;;;4.83;;
18136;SDS011;9194;42.632;23.298;2022-09-28T02:36:58;13.70;;;5.10;;
18136;SDS011;9194;42.632;23.298;2022-09-28T02:42:22;4.47;;;3.30;;
18136;SDS011;9194;42.632;23.298;2022-09-28T02:47:33;8.83;;;4.60;;
18136;SDS011;9194;42.632;23.298;2022-09-28T03:13:49;6.70;;;4.40;;
18136;SDS011;9194;42.632;23.298;2022-09-28T03:18:55;4.93;;;4.40;;
18136;SDS011;9194;42.632;23.298;2022-09-28T03:23:56;11.87;;;6.10;;
18136;SDS011;9194;42.632;23.298;2022-09-28T03:28:58;5.47;;;4.97;;
18136;SDS011;9194;42.632;23.298;2022-09-28T03:34:01;9.00;;;4.83;;
18136;SDS011;9194;42.632;23.298;2022-09-28T03:39:02;8.83;;;5.60;;
18136;SDS011;9194;42.632;23.298;2022-09-28T03:44:05;7.50;;;5.70;;
18136;SDS011;9194;42.632;23.298;2022-09-28T03:49:08;8.33;;;5.73;;
18136;SDS011;9194;42.632;23.298;2022-09-28T03:54:09;15.10;;;5.80;;
18136;SDS011;9194;42.632;23.298;2022-09-28T03:59:10;10.37;;;6.20;;
18136;SDS011;9194;42.632;23.298;2022-09-28T04:04:17;10.60;;;6.00;;
18136;SDS011;9194;42.632;23.298;2022-09-28T04:09:19;13.40;;;5.80;;
18136;SDS011;9194;42.632;23.298;2022-09-28T04:14:21;12.07;;;5.50;;
18136;SDS011;9194;42.632;23.298;2022-09-28T04:19:22;5.80;;;5.30;;
18136;SDS011;9194;42.632;23.298;2022-09-28T04:24:39;10.23;;;5.47;;
18136;SDS011;9194;42.632;23.298;2022-09-28T04:29:43;8.63;;;5.33;;
18136;SDS011;9194;42.632;23.298;2022-09-28T04:34:45;8.63;;;4.93;;
18136;SDS011;9194;42.632;23.298;2022-09-28T04:39:47;7.50;;;5.00;;
18136;SDS011;9194;42.632;23.298;2022-09-28T04:44:48;6.37;;;4.77;;
18136;SDS011;9194;42.632;23.298;2022-09-28T04:49:49;9.63;;;6.37;;
18136;SDS011;9194;42.632;23.298;2022-09-28T04:55:00;15.57;;;5.30;;
18136;SDS011;9194;42.632;23.298;2022-09-28T05:00:02;6.97;;;4.73;;
18136;SDS011;9194;42.632;23.298;2022-09-28T05:05:06;7.53;;;4.77;;
18136;SDS011;9194;42.632;23.298;2022-09-28T05:10:29;6.07;;;4.43;;
18136;SDS011;9194;42.632;23.298;2022-09-28T05:15:30;7.20;;;4.30;;
18136;SDS011;9194;42.632;23.298;2022-09-28T05:20:32;5.60;;;3.73;;
18136;SDS011;9194;42.632;23.298;2022-09-28T05:25:34;9.00;;;4.40;;
18136;SDS011;9194;42.632;23.298;2022-09-28T05:30:40;5.27;;;3.50;;
18136;SDS011;9194;42.632;23.298;2022-09-28T05:36:00;6.83;;;4.10;;
18136;SDS011;9194;42.632;23.298;2022-09-28T05:41:02;11.87;;;4.93;;
18136;SDS011;9194;42.632;23.298;2022-09-28T05:46:04;12.60;;;4.73;;
18136;SDS011;9194;42.632;23.298;2022-09-28T05:51:08;9.53;;;4.93;;
18136;SDS011;9194;42.632;23.298;2022-09-28T05:56:10;12.80;;;5.73;;
18136;SDS011;9194;42.632;23.298;2022-09-28T06:01:16;10.05;;;6.47;;
18136;SDS011;9194;42.632;23.298;2022-09-28T06:06:18;12.18;;;7.13;;
18136;SDS011;9194;42.632;23.298;2022-09-28T06:11:21;10.13;;;5.60;;
18136;SDS011;9194;42.632;23.298;2022-09-28T06:16:25;9.98;;;5.20;;
18136;SDS011;9194;42.632;23.298;2022-09-28T06:21:26;6.93;;;4.18;;
18136;SDS011;9194;42.632;23.298;2022-09-28T06:26:28;13.23;;;7.32;;
18136;SDS011;9194;42.632;23.298;2022-09-28T06:31:29;20.17;;;9.10;;
18136;SDS011;9194;42.632;23.298;2022-09-28T06:36:31;15.95;;;8.15;;
18136;SDS011;9194;42.632;23.298;2022-09-28T06:41:32;14.70;;;9.98;;
18136;SDS011;9194;42.632;23.298;2022-09-28T06:46:40;26.35;;;12.73;;
18136;SDS011;9194;42.632;23.298;2022-09-28T06:51:44;23.80;;;13.25;;
18136;SDS011;9194;42.632;23.298;2022-09-28T06:56:53;23.92;;;12.60;;
18136;SDS011;9194;42.632;23.298;2022-09-28T07:01:55;21.65;;;12.85;;
18136;SDS011;9194;42.632;23.298;2022-09-28T07:07:14;28.52;;;13.88;;
18136;SDS011;9194;42.632;23.298;2022-09-28T07:12:39;28.52;;;14.77;;
18136;SDS011;9194;42.632;23.298;2022-09-28T07:18:13;31.08;;;15.65;;
18136;SDS011;9194;42.632;23.298;2022-09-28T07:23:17;29.30;;;15.35;;
18136;SDS011;9194;42.632;23.298;2022-09-28T07:28:37;35.58;;;16.00;;
18136;SDS011;9194;42.632;23.298;2022-09-28T07:33:43;27.92;;;17.60;;
18136;SDS011;9194;42.632;23.298;2022-09-28T07:38:50;40.45;;;17.33;;
18136;SDS011;9194;42.632;23.298;2022-09-28T07:43:52;24.33;;;12.32;;
18136;SDS011;9194;42.632;23.298;2022-09-28T07:48:54;24.48;;;12.65;;
18136;SDS011;9194;42.632;23.298;2022-09-28T07:54:07;18.10;;;7.40;;
18136;SDS011;9194;42.632;23.298;2022-09-28T07:59:35;16.67;;;9.43;;
18136;SDS011;9194;42.632;23.298;2022-09-28T08:04:39;15.32;;;8.63;;
18136;SDS011;9194;42.632;23.298;2022-09-28T08:09:41;19.27;;;9.00;;
18136;SDS011;9194;42.632;23.298;2022-09-28T08:15:21;20.65;;;9.75;;
18136;SDS011;9194;42.632;23.298;2022-09-28T08:20:30;22.10;;;12.43;;
18136;SDS011;9194;42.632;23.298;2022-09-28T08:25:51;21.02;;;11.05;;
18136;SDS011;9194;42.632;23.298;2022-09-28T08:30:58;22.55;;;9.52;;
18136;SDS011;9194;42.632;23.298;2022-09-28T08:36:01;19.80;;;9.32;;
18136;SDS011;9194;42.632;23.298;2022-09-28T08:46:46;23.90;;;9.48;;
18136;SDS011;9194;42.632;23.298;2022-09-28T08:52:29;19.13;;;9.02;;
18136;SDS011;9194;42.632;23.298;2022-09-28T08:58:04;21.88;;;10.40;;
18136;SDS011;9194;42.632;23.298;2022-09-28T09:03:13;17.77;;;8.57;;
18136;SDS011;9194;42.632;23.298;2022-09-28T09:13:45;18.92;;;7.90;;
18136;SDS011;9194;42.632;23.298;2022-09-28T09:18:55;16.05;;;6.15;;
18136;SDS011;9194;42.632;23.298;2022-09-28T09:30:02;9.88;;;5.97;;
18136;SDS011;9194;42.632;23.298;2022-09-28T09:46:43;12.15;;;3.88;;
18136;SDS011;9194;42.632;23.298;2022-09-28T09:57:42;6.47;;;3.70;;
18136;SDS011;9194;42.632;23.298;2022-09-28T10:03:22;11.15;;;3.58;;
18136;SDS011;9194;42.632;23.298;2022-09-28T10:08:30;9.45;;;3.20;;
18136;SDS011;9194;42.632;23.298;2022-09-28T10:13:38;6.57;;;2.78;;
18136;SDS011;9194;42.632;23.298;2022-09-28T10:18:56;10.07;;;2.90;;
18136;SDS011;9194;42.632;23.298;2022-09-28T10:24:27;7.65;;;3.33;;
18136;SDS011;9194;42.632;23.298;2022-09-28T10:29:36;8.57;;;2.40;;
18136;SDS011;9194;42.632;23.298;2022-09-28T10:34:43;4.47;;;2.30;;
18136;SDS011;9194;42.632;23.298;2022-09-28T10:39:50;3.72;;;2.20;;
18136;SDS011;9194;42.632;23.298;2022-09-28T10:44:55;6.18;;;2.47;;
18136;SDS011;9194;42.632;23.298;2022-09-28T10:50:33;8.18;;;2.22;;
18136;SDS011;9194;42.632;23.298;2022-09-28T10:55:41;5.50;;;2.25;;
18136;SDS011;9194;42.632;23.298;2022-09-28T11:01:02;4.63;;;1.90;;
18136;SDS011;9194;42.632;23.298;2022-09-28T11:06:09;8.00;;;2.67;;
18136;SDS011;9194;42.632;23.298;2022-09-28T11:11:13;6.95;;;1.88;;
18136;SDS011;9194;42.632;23.298;2022-09-28T11:16:31;5.88;;;2.05;;
18136;SDS011;9194;42.632;23.298;2022-09-28T11:21:42;10.70;;;2.15;;
18136;SDS011;9194;42.632;23.298;2022-09-28T11:26:45;5.28;;;1.90;;
18136;SDS011;9194;42.632;23.298;2022-09-28T11:32:01;9.35;;;2.10;;
18136;SDS011;9194;42.632;23.298;2022-09-28T11:48:14;2.83;;;1.80;;
18136;SDS011;9194;42.632;23.298;2022-09-28T11:53:43;5.70;;;1.63;;
18136;SDS011;9194;42.632;23.298;2022-09-28T11:58:52;2.63;;;1.50;;
18136;SDS011;9194;42.632;23.298;2022-09-28T12:09:21;5.07;;;1.92;;
18136;SDS011;9194;42.632;23.298;2022-09-28T12:14:42;2.42;;;1.45;;
18136;SDS011;9194;42.632;23.298;2022-09-28T12:19:50;5.50;;;1.77;;
18136;SDS011;9194;42.632;23.298;2022-09-28T12:24:58;2.05;;;1.38;;
18136;SDS011;9194;42.632;23.298;2022-09-28T12:30:03;2.97;;;1.40;;
18136;SDS011;9194;42.632;23.298;2022-09-28T12:35:18;1.25;;;1.10;;
18136;SDS011;9194;42.632;23.298;2022-09-28T12:40:35;4.97;;;1.58;;
18136;SDS011;9194;42.632;23.298;2022-09-28T13:06:55;4.43;;;1.23;;
18136;SDS011;9194;42.632;23.298;2022-09-28T13:17:23;2.55;;;1.35;;
18136;SDS011;9194;42.632;23.298;2022-09-28T13:28:11;1.42;;;1.33;;
18136;SDS011;9194;42.632;23.298;2022-09-28T13:33:30;7.47;;;1.20;;
18136;SDS011;9194;42.632;23.298;2022-09-28T13:38:45;3.85;;;1.05;;
18136;SDS011;9194;42.632;23.298;2022-09-28T13:49:23;4.75;;;1.40;;
18136;SDS011;9194;42.632;23.298;2022-09-28T13:59:52;4.45;;;1.20;;
18136;SDS011;9194;42.632;23.298;2022-09-28T14:10:23;6.53;;;1.30;;
18136;SDS011;9194;42.632;23.298;2022-09-28T14:15:44;7.10;;;1.02;;
18136;SDS011;9194;42.632;23.298;2022-09-28T14:20:54;0.90;;;0.85;;
18136;SDS011;9194;42.632;23.298;2022-09-28T14:26:05;1.25;;;1.13;;
18136;SDS011;9194;42.632;23.298;2022-09-28T14:31:24;4.85;;;1.00;;
18136;SDS011;9194;42.632;23.298;2022-09-28T14:36:37;3.50;;;1.10;;
18136;SDS011;9194;42.632;23.298;2022-09-28T14:42:06;1.90;;;1.13;;
18136;SDS011;9194;42.632;23.298;2022-09-28T14:52:45;3.03;;;0.98;;
18136;SDS011;9194;42.632;23.298;2022-09-28T14:57:54;2.17;;;1.08;;
18136;SDS011;9194;42.632;23.298;2022-09-28T15:03:04;3.53;;;1.00;;
18136;SDS011;9194;42.632;23.298;2022-09-28T15:08:07;1.23;;;1.10;;
18136;SDS011;9194;42.632;23.298;2022-09-28T15:13:24;3.30;;;1.20;;
18136;SDS011;9194;42.632;23.298;2022-09-28T15:18:39;4.03;;;1.40;;
18136;SDS011;9194;42.632;23.298;2022-09-28T15:23:44;2.30;;;1.23;;
18136;SDS011;9194;42.632;23.298;2022-09-28T15:28:45;1.38;;;1.25;;
18136;SDS011;9194;42.632;23.298;2022-09-28T15:33:46;5.80;;;1.70;;
18136;SDS011;9194;42.632;23.298;2022-09-28T15:39:11;2.22;;;1.45;;
18136;SDS011;9194;42.632;23.298;2022-09-28T15:44:37;1.30;;;1.00;;
18136;SDS011;9194;42.632;23.298;2022-09-28T15:49:43;1.52;;;1.27;;
18136;SDS011;9194;42.632;23.298;2022-09-28T15:54:58;7.82;;;1.73;;
18136;SDS011;9194;42.632;23.298;2022-09-28T16:00:03;4.25;;;1.42;;
18136;SDS011;9194;42.632;23.298;2022-09-28T16:10:49;3.15;;;1.35;;
18136;SDS011;9194;42.632;23.298;2022-09-28T16:15:55;12.50;;;1.70;;
18136;SDS011;9194;42.632;23.298;2022-09-28T16:21:19;4.15;;;1.30;;
18136;SDS011;9194;42.632;23.298;2022-09-28T16:26:40;3.75;;;1.60;;
18136;SDS011;9194;42.632;23.298;2022-09-28T16:31:41;6.57;;;1.45;;
18136;SDS011;9194;42.632;23.298;2022-09-28T16:36:51;8.98;;;1.40;;
18136;SDS011;9194;42.632;23.298;2022-09-28T16:41:54;4.10;;;1.77;;
18136;SDS011;9194;42.632;23.298;2022-09-28T16:46:59;4.07;;;1.85;;
18136;SDS011;9194;42.632;23.298;2022-09-28T16:52:01;3.05;;;1.58;;
18136;SDS011;9194;42.632;23.298;2022-09-28T16:57:03;4.32;;;2.15;;
18136;SDS011;9194;42.632;23.298;2022-09-28T17:02:18;6.35;;;1.35;;
18136;SDS011;9194;42.632;23.298;2022-09-28T17:07:27;7.60;;;1.45;;
18136;SDS011;9194;42.632;23.298;2022-09-28T17:12:31;3.45;;;1.45;;
18136;SDS011;9194;42.632;23.298;2022-09-28T17:17:34;1.48;;;1.38;;
18136;SDS011;9194;42.632;23.298;2022-09-28T17:22:41;6.57;;;1.55;;
18136;SDS011;9194;42.632;23.298;2022-09-28T17:27:43;1.67;;;1.10;;
18136;SDS011;9194;42.632;23.298;2022-09-28T17:32:46;3.15;;;1.23;;
18136;SDS011;9194;42.632;23.298;2022-09-28T17:37:48;2.35;;;1.73;;
18136;SDS011;9194;42.632;23.298;2022-09-28T17:48:22;3.40;;;2.13;;
18136;SDS011;9194;42.632;23.298;2022-09-28T17:53:24;5.30;;;1.75;;
18136;SDS011;9194;42.632;23.298;2022-09-28T17:58:26;4.15;;;1.73;;
18136;SDS011;9194;42.632;23.298;2022-09-28T18:03:27;2.08;;;1.80;;
18136;SDS011;9194;42.632;23.298;2022-09-28T18:08:29;1.02;;;1.02;;
18136;SDS011;9194;42.632;23.298;2022-09-28T18:13:31;5.10;;;1.48;;
18136;SDS011;9194;42.632;23.298;2022-09-28T18:18:36;6.30;;;1.80;;
18136;SDS011;9194;42.632;23.298;2022-09-28T18:23:42;2.45;;;1.50;;
18136;SDS011;9194;42.632;23.298;2022-09-28T18:28:43;3.25;;;1.50;;
18136;SDS011;9194;42.632;23.298;2022-09-28T18:33:45;6.55;;;1.40;;
18136;SDS011;9194;42.632;23.298;2022-09-28T18:38:48;3.63;;;1.40;;
18136;SDS011;9194;42.632;23.298;2022-09-28T18:43:50;3.28;;;1.50;;
18136;SDS011;9194;42.632;23.298;2022-09-28T18:48:53;3.22;;;1.50;;
18136;SDS011;9194;42.632;23.298;2022-09-28T18:53:55;3.90;;;2.08;;
18136;SDS011;9194;42.632;23.298;2022-09-28T18:58:57;3.92;;;1.95;;
18136;SDS011;9194;42.632;23.298;2022-09-28T19:04:00;6.47;;;2.20;;
18136;SDS011;9194;42.632;23.298;2022-09-28T19:09:12;3.55;;;1.73;;
18136;SDS011;9194;42.632;23.298;2022-09-28T19:14:13;3.17;;;2.30;;
18136;SDS011;9194;42.632;23.298;2022-09-28T19:19:16;3.60;;;1.48;;
18136;SDS011;9194;42.632;23.298;2022-09-28T19:24:19;6.20;;;1.77;;
18136;SDS011;9194;42.632;23.298;2022-09-28T19:29:20;4.88;;;1.90;;
18136;SDS011;9194;42.632;23.298;2022-09-28T19:34:22;5.20;;;1.65;;
18136;SDS011;9194;42.632;23.298;2022-09-28T19:39:26;3.17;;;2.03;;
18136;SDS011;9194;42.632;23.298;2022-09-28T19:44:28;6.32;;;1.58;;
18136;SDS011;9194;42.632;23.298;2022-09-28T19:49:31;5.22;;;1.42;;
18136;SDS011;9194;42.632;23.298;2022-09-28T19:54:36;6.57;;;1.90;;
18136;SDS011;9194;42.632;23.298;2022-09-28T19:59:38;2.33;;;1.60;;
18136;SDS011;9194;42.632;23.298;2022-09-28T20:04:40;2.83;;;1.90;;
18136;SDS011;9194;42.632;23.298;2022-09-28T20:09:41;8.65;;;2.00;;
18136;SDS011;9194;42.632;23.298;2022-09-28T20:14:42;6.72;;;1.83;;
18136;SDS011;9194;42.632;23.298;2022-09-28T20:19:44;3.45;;;1.67;;
18136;SDS011;9194;42.632;23.298;2022-09-28T20:24:45;3.40;;;1.77;;
18136;SDS011;9194;42.632;23.298;2022-09-28T20:29:46;4.63;;;2.05;;
18136;SDS011;9194;42.632;23.298;2022-09-28T20:34:48;1.92;;;1.83;;
18136;SDS011;9194;42.632;23.298;2022-09-28T20:39:49;2.90;;;1.63;;
18136;SDS011;9194;42.632;23.298;2022-09-28T20:44:50;6.57;;;1.70;;
18136;SDS011;9194;42.632;23.298;2022-09-28T20:49:52;4.20;;;1.60;;
18136;SDS011;9194;42.632;23.298;2022-09-28T20:54:53;2.38;;;1.70;;
18136;SDS011;9194;42.632;23.298;2022-09-28T20:59:54;6.22;;;1.80;;
18136;SDS011;9194;42.632;23.298;2022-09-28T21:04:55;4.45;;;1.73;;
18136;SDS011;9194;42.632;23.298;2022-09-28T21:09:57;10.32;;;2.28;;
18136;SDS011;9194;42.632;23.298;2022-09-28T21:14:58;12.55;;;2.30;;
18136;SDS011;9194;42.632;23.298;2022-09-28T21:19:59;87.53;;;23.10;;
18136;SDS011;9194;42.632;23.298;2022-09-28T21:25:01;25.27;;;6.90;;
18136;SDS011;9194;42.632;23.298;2022-09-28T21:30:02;115.65;;;26.10;;
18136;SDS011;9194;42.632;23.298;2022-09-28T21:35:04;150.63;;;31.60;;
18136;SDS011;9194;42.632;23.298;2022-09-28T21:40:06;276.02;;;69.45;;
18136;SDS011;9194;42.632;23.298;2022-09-28T21:45:09;1036.07;;;305.92;;
18136;SDS011;9194;42.632;23.298;2022-09-28T21:50:10;619.28;;;158.60;;
18136;SDS011;9194;42.632;23.298;2022-09-28T21:55:12;50.03;;;17.15;;
18136;SDS011;9194;42.632;23.298;2022-09-28T22:00:14;46.22;;;19.33;;
18136;SDS011;9194;42.632;23.298;2022-09-28T22:05:16;13.60;;;6.75;;
18136;SDS011;9194;42.632;23.298;2022-09-28T22:10:19;15.30;;;6.70;;
18136;SDS011;9194;42.632;23.298;2022-09-28T22:15:20;140.30;;;47.28;;
18136;SDS011;9194;42.632;23.298;2022-09-28T22:20:21;127.03;;;47.70;;
18136;SDS011;9194;42.632;23.298;2022-09-28T22:25:22;24.70;;;9.20;;
18136;SDS011;9194;42.632;23.298;2022-09-28T22:30:24;12.27;;;6.82;;
18136;SDS011;9194;42.632;23.298;2022-09-28T22:35:25;7.35;;;2.50;;
18136;SDS011;9194;42.632;23.298;2022-09-28T22:40:26;6.80;;;3.10;;
18136;SDS011;9194;42.632;23.298;2022-09-28T22:45:27;9.57;;;3.65;;
18136;SDS011;9194;42.632;23.298;2022-09-28T22:50:29;5.10;;;2.65;;
18136;SDS011;9194;42.632;23.298;2022-09-28T22:55:31;4.30;;;3.90;;
18136;SDS011;9194;42.632;23.298;2022-09-28T23:00:35;5.20;;;2.70;;
18136;SDS011;9194;42.632;23.298;2022-09-28T23:05:36;3.78;;;2.22;;
18136;SDS011;9194;42.632;23.298;2022-09-28T23:10:37;2.70;;;2.50;;
18136;SDS011;9194;42.632;23.298;2022-09-28T23:15:39;5.43;;;2.70;;
18136;SDS011;9194;42.632;23.298;2022-09-28T23:20:40;3.35;;;2.30;;
18136;SDS011;9194;42.632;23.298;2022-09-28T23:25:41;10.25;;;2.20;;
18136;SDS011;9194;42.632;23.298;2022-09-28T23:30:43;10.45;;;2.35;;
18136;SDS011;9194;42.632;23.298;2022-09-28T23:35:44;9.25;;;2.40;;
18136;SDS011;9194;42.632;23.298;2022-09-28T23:40:46;9.07;;;2.58;;
18136;SDS011;9194;42.632;23.298;2022-09-28T23:45:47;3.88;;;2.00;;
18136;SDS011;9194;42.632;23.298;2022-09-28T23:50:49;4.25;;;2.33;;
18136;SDS011;9194;42.632;23.298;2022-09-28T23:55:50;6.40;;;2.20;;
